createdAt,value
2018-07-06T00:00:40.725Z,3.77
2018-07-06T00:02:55.227Z,3.90
2018-07-06T00:05:09.779Z,4.37
2018-07-06T00:07:24.339Z,5.00
2018-07-06T00:09:38.963Z,5.07
2018-07-06T00:11:53.694Z,5.10
2018-07-06T00:14:08.206Z,4.20
2018-07-06T00:16:22.851Z,4.77
2018-07-06T00:18:31.278Z,4.70
2018-07-06T00:20:45.951Z,4.23
2018-07-06T00:23:00.388Z,5.00
2018-07-06T00:25:14.856Z,5.23
2018-07-06T00:27:29.420Z,4.43
2018-07-06T00:29:43.852Z,5.70
2018-07-06T00:31:58.379Z,5.90
2018-07-06T00:34:13.019Z,5.87
2018-07-06T00:36:27.664Z,5.47
2018-07-06T00:38:42.229Z,5.27
2018-07-06T00:40:56.644Z,5.70
2018-07-06T00:43:11.176Z,4.67
2018-07-06T00:45:25.861Z,4.47
2018-07-06T00:47:40.242Z,5.10
2018-07-06T00:49:54.807Z,4.47
2018-07-06T00:52:09.455Z,4.57
2018-07-06T00:54:24.012Z,4.30
2018-07-06T00:56:38.571Z,4.80
2018-07-06T00:58:53.044Z,4.40
2018-07-06T01:01:07.560Z,4.50
2018-07-06T01:03:22.232Z,4.13
2018-07-06T01:05:36.832Z,4.17
2018-07-06T01:07:51.379Z,4.23
2018-07-06T01:10:06.120Z,4.83
2018-07-06T01:12:26.180Z,4.77
2018-07-06T01:14:40.523Z,4.30
2018-07-06T01:16:55.017Z,3.27
2018-07-06T01:19:09.596Z,4.13
2018-07-06T01:21:24.115Z,3.77
2018-07-06T01:23:38.676Z,4.57
2018-07-06T01:25:53.227Z,4.07
2018-07-06T01:28:07.906Z,4.73
2018-07-06T01:30:22.519Z,4.30
2018-07-06T01:32:37.200Z,5.10
2018-07-06T01:34:52.064Z,5.00
2018-07-06T01:37:06.482Z,4.00
2018-07-06T01:39:21.039Z,4.20
2018-07-06T01:41:35.616Z,4.43
2018-07-06T01:43:50.127Z,4.63
2018-07-06T01:45:58.631Z,4.43
2018-07-06T01:48:13.224Z,4.00
2018-07-06T01:50:27.740Z,3.60
2018-07-06T01:52:42.411Z,3.87
2018-07-06T01:54:56.951Z,3.40
2018-07-06T01:57:11.376Z,3.77
2018-07-06T01:59:25.879Z,3.50
2018-07-06T02:01:40.327Z,4.67
2018-07-06T02:03:54.845Z,4.30
2018-07-06T02:06:09.448Z,3.30
2018-07-06T02:08:24.176Z,4.50
2018-07-06T02:10:38.568Z,4.37
2018-07-06T02:12:53.332Z,3.33
2018-07-06T02:15:07.932Z,3.20
2018-07-06T02:17:22.620Z,4.23
2018-07-06T02:19:37.278Z,4.13
2018-07-06T02:21:51.628Z,4.50
2018-07-06T02:24:06.155Z,3.70
2018-07-06T02:26:20.584Z,4.00
2018-07-06T02:28:35.122Z,4.60
2018-07-06T02:30:49.509Z,4.60
2018-07-06T02:33:04.212Z,4.63
2018-07-06T02:35:18.708Z,4.70
2018-07-06T02:37:33.192Z,4.30
2018-07-06T02:39:47.951Z,5.13
2018-07-06T02:42:02.496Z,3.73
2018-07-06T02:44:17.160Z,4.83
2018-07-06T02:46:32.180Z,5.70
2018-07-06T02:48:46.684Z,5.97
2018-07-06T02:51:01.504Z,6.40
2018-07-06T02:53:15.977Z,4.83
2018-07-06T02:55:30.530Z,6.37
2018-07-06T02:57:45.040Z,6.07
2018-07-06T02:59:59.640Z,6.87
2018-07-06T03:02:14.178Z,6.33
2018-07-06T03:04:28.837Z,6.70
2018-07-06T03:06:37.292Z,6.87
2018-07-06T03:08:51.946Z,6.80
2018-07-06T03:11:07.580Z,6.37
2018-07-06T03:13:22.149Z,7.40
2018-07-06T03:15:36.772Z,8.00
2018-07-06T03:17:51.356Z,7.80
2018-07-06T03:20:06.104Z,7.00
2018-07-06T03:22:20.656Z,7.00
2018-07-06T03:24:35.209Z,8.60
2018-07-06T03:26:49.891Z,7.93
2018-07-06T03:29:04.364Z,7.77
2018-07-06T03:31:18.920Z,10.07
2018-07-06T03:33:33.543Z,8.67
2018-07-06T03:35:47.996Z,8.47
2018-07-06T03:38:02.664Z,9.43
2018-07-06T03:40:17.028Z,8.87
2018-07-06T03:42:31.449Z,8.37
2018-07-06T03:44:46.044Z,8.70
2018-07-06T03:47:00.446Z,10.10
2018-07-06T03:49:15.175Z,9.50
2018-07-06T03:51:29.860Z,8.43
2018-07-06T03:53:44.428Z,8.67
2018-07-06T03:55:58.886Z,10.57
2018-07-06T03:58:13.421Z,9.20
2018-07-06T04:00:28.140Z,9.73
2018-07-06T04:02:42.676Z,9.10
2018-07-06T04:04:57.323Z,8.83
2018-07-06T04:07:11.708Z,8.60
2018-07-06T04:09:26.164Z,9.07
2018-07-06T04:11:40.859Z,8.90
2018-07-06T04:13:55.500Z,10.57
2018-07-06T04:16:10.172Z,10.00
2018-07-06T04:18:24.561Z,10.23
2018-07-06T04:20:39.207Z,10.97
2018-07-06T04:22:53.596Z,10.20
2018-07-06T04:25:08.136Z,9.87
2018-07-06T04:27:22.677Z,11.20
2018-07-06T04:29:37.221Z,11.60
2018-07-06T04:31:51.741Z,11.37
2018-07-06T04:34:06.180Z,11.47
2018-07-06T04:36:20.595Z,10.37
2018-07-06T04:38:35.291Z,10.80
2018-07-06T04:40:49.972Z,11.23
2018-07-06T04:43:05.024Z,11.47
2018-07-06T04:45:19.452Z,12.23
2018-07-06T04:47:33.980Z,12.10
2018-07-06T04:49:48.680Z,11.27
2018-07-06T04:52:03.507Z,12.83
2018-07-06T04:54:18.276Z,13.77
2018-07-06T04:56:32.869Z,12.40
2018-07-06T04:58:47.552Z,13.70
2018-07-06T05:01:02.172Z,13.47
2018-07-06T05:03:16.780Z,13.50
2018-07-06T05:05:31.382Z,15.40
2018-07-06T05:07:45.954Z,15.50
2018-07-06T05:10:00.684Z,15.00
2018-07-06T05:12:15.567Z,15.17
2018-07-06T05:14:30.319Z,15.07
2018-07-06T05:16:44.963Z,15.17
2018-07-06T05:18:59.266Z,15.10
2018-07-06T05:21:13.951Z,16.90
2018-07-06T05:23:28.652Z,15.23
2018-07-06T05:25:43.258Z,16.77
2018-07-06T05:27:57.649Z,16.23
2018-07-06T05:30:12.199Z,15.10
2018-07-06T05:32:26.924Z,15.20
2018-07-06T05:34:41.911Z,17.00
2018-07-06T05:36:56.552Z,17.33
2018-07-06T05:39:11.111Z,17.07
2018-07-06T05:41:25.947Z,15.77
2018-07-06T05:43:40.428Z,15.67
2018-07-06T05:45:54.960Z,15.10
2018-07-06T05:48:09.657Z,16.00
2018-07-06T05:50:24.048Z,14.73
2018-07-06T05:52:38.637Z,16.73
2018-07-06T05:54:53.141Z,15.67
2018-07-06T05:57:07.822Z,17.10
2018-07-06T05:59:22.501Z,16.10
2018-07-06T06:18:06.600Z,16.67
2018-07-06T06:20:15.380Z,15.33
2018-07-06T06:22:18.525Z,16.07
2018-07-06T06:24:21.736Z,15.83
2018-07-06T06:26:28.617Z,14.27
2018-07-06T06:28:31.800Z,14.90
2018-07-06T06:30:35.004Z,15.17
2018-07-06T06:32:38.291Z,14.53
2018-07-06T06:34:41.255Z,16.77
2018-07-06T06:36:44.391Z,14.47
2018-07-06T06:38:48.360Z,14.90
2018-07-06T06:40:51.669Z,14.07
2018-07-06T06:42:54.821Z,14.20
2018-07-06T06:44:57.959Z,13.50
2018-07-06T06:47:01.135Z,14.80
2018-07-06T06:49:04.400Z,14.10
2018-07-06T06:51:07.559Z,14.63
2018-07-06T06:53:10.787Z,13.20
2018-07-06T06:55:13.864Z,12.80
2018-07-06T06:57:16.996Z,14.27
2018-07-06T06:59:20.288Z,14.03
2018-07-06T07:01:23.429Z,13.70
2018-07-06T07:03:26.572Z,14.53
2018-07-06T07:05:29.717Z,14.20
2018-07-06T07:07:32.877Z,14.03
2018-07-06T07:09:36.005Z,13.50
2018-07-06T07:11:39.231Z,15.53
2018-07-06T07:13:42.497Z,12.57
2018-07-06T07:15:46.121Z,15.10
2018-07-06T07:17:49.274Z,14.50
2018-07-06T07:19:52.468Z,13.90
2018-07-06T07:21:55.595Z,13.03
2018-07-06T07:23:58.988Z,14.00
2018-07-06T07:26:02.272Z,14.97
2018-07-06T07:28:05.584Z,14.33
2018-07-06T07:30:08.760Z,14.10
2018-07-06T07:32:11.896Z,14.40
2018-07-06T07:34:15.054Z,13.67
2018-07-06T07:36:18.195Z,15.10
2018-07-06T07:38:21.812Z,16.10
2018-07-06T07:40:24.952Z,14.20
2018-07-06T07:42:28.075Z,13.20
2018-07-06T07:44:31.225Z,13.47
2018-07-06T07:46:34.428Z,13.10
2018-07-06T07:48:37.492Z,13.10
2018-07-06T07:50:52.296Z,13.53
2018-07-06T07:53:06.932Z,12.57
2018-07-06T07:55:10.102Z,13.80
2018-07-06T07:57:13.160Z,12.87
2018-07-06T07:59:16.245Z,12.60
2018-07-06T08:01:19.529Z,13.30
2018-07-06T08:03:22.518Z,15.50
2018-07-06T08:05:25.624Z,13.33
2018-07-06T08:07:28.720Z,12.57
2018-07-06T08:09:33.043Z,12.90
2018-07-06T08:11:36.304Z,10.73
2018-07-06T08:13:39.393Z,10.70
2018-07-06T08:15:42.497Z,10.80
2018-07-06T08:17:45.580Z,11.70
2018-07-06T08:19:48.680Z,11.63
2018-07-06T08:21:51.799Z,11.17
2018-07-06T08:23:54.947Z,12.03
2018-07-06T08:25:58.026Z,10.10
2018-07-06T08:28:01.171Z,10.13
2018-07-06T08:30:04.276Z,10.13
2018-07-06T08:32:07.369Z,10.03
2018-07-06T08:34:21.903Z,11.00
2018-07-06T08:37:48.231Z,11.60
2018-07-06T08:39:51.416Z,12.80
2018-07-06T08:41:54.440Z,9.87
2018-07-06T08:43:57.544Z,8.63
2018-07-06T08:46:00.648Z,9.20
2018-07-06T08:48:03.752Z,8.23
2018-07-06T08:50:07.495Z,9.23
2018-07-06T08:52:10.596Z,8.13
2018-07-06T08:54:13.701Z,8.00
2018-07-06T08:56:16.574Z,9.40
2018-07-06T08:58:19.566Z,8.20
2018-07-06T09:00:22.612Z,6.50
2018-07-06T09:02:26.008Z,7.13
2018-07-06T09:04:29.152Z,7.03
2018-07-06T09:06:33.241Z,7.37
2018-07-06T09:08:36.324Z,8.33
2018-07-06T09:10:39.426Z,6.70
2018-07-06T09:12:42.537Z,5.93
2018-07-06T09:14:45.643Z,5.43
2018-07-06T09:16:49.028Z,6.27
2018-07-06T09:18:52.124Z,6.40
2018-07-06T09:20:55.219Z,9.07
2018-07-06T09:22:58.330Z,8.23
2018-07-06T09:25:03.682Z,7.67
2018-07-06T09:27:06.562Z,7.10
2018-07-06T09:29:09.672Z,8.27
2018-07-06T09:31:12.763Z,7.90
2018-07-06T09:33:15.856Z,8.53
2018-07-06T09:35:18.964Z,6.30
2018-07-06T09:37:22.067Z,7.13
2018-07-06T09:39:25.161Z,8.27
2018-07-06T09:41:28.271Z,6.80
2018-07-06T09:43:32.144Z,7.33
2018-07-06T09:45:35.246Z,8.57
2018-07-06T09:47:38.361Z,9.03
2018-07-06T09:49:41.468Z,7.97
2018-07-06T09:51:44.620Z,5.90
2018-07-06T09:53:47.754Z,7.60
2018-07-06T09:55:50.874Z,5.67
2018-07-06T09:57:54.003Z,6.50
2018-07-06T09:59:57.125Z,5.30
2018-07-06T10:02:00.273Z,5.67
2018-07-06T10:04:04.036Z,5.60
2018-07-06T10:06:07.167Z,5.40
2018-07-06T10:08:10.351Z,4.10
2018-07-06T10:10:13.511Z,4.10
2018-07-06T10:12:16.670Z,2.90
2018-07-06T10:14:19.809Z,3.53
2018-07-06T10:16:23.652Z,3.37
2018-07-06T10:18:26.787Z,3.53
2018-07-06T10:20:29.961Z,3.83
2018-07-06T10:22:33.096Z,3.70
2018-07-06T10:24:36.287Z,4.50
2018-07-06T10:26:39.415Z,3.83
2018-07-06T10:29:20.624Z,4.97
2018-07-06T10:32:29.961Z,2.90
2018-07-06T10:34:33.083Z,3.43
2018-07-06T10:36:36.223Z,3.00
2018-07-06T10:38:39.356Z,3.27
2018-07-06T10:40:42.424Z,3.10
2018-07-06T10:42:45.561Z,4.50
2018-07-06T10:44:48.687Z,4.50
2018-07-06T10:46:51.803Z,4.07
2018-07-06T10:48:54.965Z,3.57
2018-07-06T10:50:58.086Z,3.57
2018-07-06T10:53:01.324Z,3.07
2018-07-06T10:55:04.420Z,2.43
2018-07-06T10:57:07.994Z,3.33
2018-07-06T10:59:11.094Z,3.77
2018-07-06T11:01:14.210Z,2.40
2018-07-06T11:03:17.168Z,3.37
2018-07-06T11:05:20.248Z,2.20
2018-07-06T11:07:23.324Z,1.90
2018-07-06T11:09:26.420Z,2.90
2018-07-06T11:11:29.553Z,3.30
2018-07-06T11:13:32.632Z,2.60
2018-07-06T11:15:35.717Z,2.93
2018-07-06T11:17:39.044Z,2.93
2018-07-06T11:19:42.133Z,2.20
2018-07-06T11:21:45.264Z,2.20
2018-07-06T11:23:48.368Z,2.00
2018-07-06T11:25:51.485Z,2.37
2018-07-06T11:27:54.603Z,2.47
2018-07-06T11:29:57.705Z,2.70
2018-07-06T11:32:00.602Z,1.87
2018-07-06T11:34:04.348Z,2.10
2018-07-06T11:36:07.428Z,2.13
2018-07-06T11:38:10.616Z,2.50
2018-07-06T11:40:13.636Z,2.27
2018-07-06T11:42:16.618Z,1.80
2018-07-06T11:44:19.735Z,2.37
2018-07-06T11:46:23.054Z,2.83
2018-07-06T11:48:26.136Z,1.87
2018-07-06T11:50:29.252Z,2.30
2018-07-06T11:52:32.379Z,2.10
2018-07-06T11:54:35.775Z,2.90
2018-07-06T11:56:38.895Z,2.70
2018-07-06T11:58:42.592Z,2.30
2018-07-06T12:00:45.724Z,2.23
2018-07-06T12:02:48.850Z,2.40
2018-07-06T12:04:52.016Z,1.67
2018-07-06T12:06:55.143Z,2.80
2018-07-06T12:08:58.300Z,1.93
2018-07-06T12:11:01.600Z,2.00
2018-07-06T12:13:04.724Z,2.33
2018-07-06T12:15:07.868Z,2.00
2018-07-06T12:17:11.046Z,2.47
2018-07-06T12:19:14.181Z,2.03
2018-07-06T12:21:17.144Z,2.27
2018-07-06T12:23:20.271Z,2.20
2018-07-06T12:25:23.408Z,2.37
2018-07-06T12:27:26.576Z,2.33
2018-07-06T12:29:29.731Z,1.93
2018-07-06T12:31:32.618Z,2.20
2018-07-06T12:33:35.731Z,2.43
2018-07-06T12:35:38.869Z,2.63
2018-07-06T12:37:41.999Z,2.20
2018-07-06T12:39:45.157Z,1.73
2018-07-06T12:41:48.276Z,2.37
2018-07-06T12:43:51.428Z,2.53
2018-07-06T12:45:54.672Z,2.43
2018-07-06T12:47:57.807Z,2.30
2018-07-06T12:50:00.931Z,2.20
2018-07-06T12:52:07.871Z,3.30
2018-07-06T12:54:11.081Z,2.30
2018-07-06T12:56:14.236Z,2.40
2018-07-06T12:58:17.554Z,2.43
2018-07-06T13:00:20.480Z,2.00
2018-07-06T13:02:23.695Z,1.97
2018-07-06T13:04:26.810Z,2.73
2018-07-06T13:06:29.956Z,1.87
2018-07-06T13:08:33.068Z,2.10
2018-07-06T13:10:37.040Z,1.53
2018-07-06T13:12:40.012Z,2.23
2018-07-06T13:14:42.891Z,1.70
2018-07-06T13:16:46.033Z,1.77
2018-07-06T13:18:49.176Z,2.00
2018-07-06T13:20:52.346Z,2.30
2018-07-06T13:22:55.475Z,1.90
2018-07-06T13:24:58.585Z,2.17
2018-07-06T13:27:01.793Z,1.70
2018-07-06T13:29:05.299Z,2.47
2018-07-06T13:31:08.444Z,1.90
2018-07-06T13:33:11.584Z,1.73
2018-07-06T13:35:14.720Z,2.20
2018-07-06T13:37:17.884Z,2.17
2018-07-06T13:39:21.047Z,1.80
2018-07-06T13:41:24.205Z,2.00
2018-07-06T13:43:27.343Z,1.70
2018-07-06T13:45:30.444Z,1.80
2018-07-06T13:47:34.111Z,1.73
2018-07-06T13:49:37.228Z,1.90
2018-07-06T13:51:40.376Z,2.40
2018-07-06T13:53:43.501Z,1.90
2018-07-06T13:55:46.633Z,2.00
2018-07-06T13:57:49.783Z,1.63
2018-07-06T13:59:52.919Z,2.40
2018-07-06T14:01:56.096Z,2.33
2018-07-06T14:03:59.232Z,1.97
2018-07-06T14:06:02.392Z,2.20
2018-07-06T14:08:06.120Z,2.27
2018-07-06T14:10:09.288Z,1.80
2018-07-06T14:12:12.441Z,2.40
2018-07-06T14:14:15.583Z,2.27
2018-07-06T14:16:18.717Z,1.87
2018-07-06T14:18:23.556Z,2.10
2018-07-06T14:20:27.607Z,1.83
2018-07-06T14:22:30.784Z,2.40
2018-07-06T14:24:33.868Z,2.30
2018-07-06T14:26:37.037Z,2.70
2018-07-06T14:28:40.200Z,2.00
2018-07-06T14:30:43.332Z,2.00
2018-07-06T14:32:46.477Z,2.53
2018-07-06T14:34:49.642Z,2.50
2018-07-06T14:36:52.764Z,1.50
2018-07-06T14:38:55.909Z,2.83
2018-07-06T14:40:59.143Z,1.93
2018-07-06T14:43:02.295Z,1.93
2018-07-06T14:45:05.482Z,2.20
2018-07-06T14:47:08.614Z,1.60
2018-07-06T14:49:11.766Z,1.50
2018-07-06T14:51:14.668Z,1.60
2018-07-06T14:53:18.816Z,2.10
2018-07-06T14:55:21.957Z,1.80
2018-07-06T14:57:25.064Z,1.60
2018-07-06T14:59:28.201Z,1.60
2018-07-06T15:01:31.308Z,1.63
2018-07-06T15:03:34.419Z,1.63
2018-07-06T15:05:37.508Z,1.67
2018-07-06T15:07:40.668Z,2.00
2018-07-06T15:09:43.808Z,1.90
2018-07-06T15:11:46.927Z,2.07
2018-07-06T15:13:50.061Z,1.80
2018-07-06T15:15:53.178Z,2.27
2018-07-06T15:17:56.321Z,2.00
2018-07-06T15:19:59.428Z,1.80
2018-07-06T15:22:02.522Z,1.83
2018-07-06T15:24:05.866Z,2.70
2018-07-06T15:26:08.972Z,1.70
2018-07-06T15:28:12.125Z,2.00
2018-07-06T15:30:15.256Z,1.90
2018-07-06T15:32:18.357Z,1.87
2018-07-06T15:34:21.483Z,1.60
2018-07-06T15:36:24.608Z,2.23
2018-07-06T15:38:27.700Z,1.70
2018-07-06T15:40:30.830Z,1.70
2018-07-06T15:42:33.929Z,1.50
2018-07-06T15:44:37.046Z,1.67
2018-07-06T15:46:40.375Z,1.50
2018-07-06T15:48:43.499Z,1.50
2018-07-06T15:50:47.654Z,1.90
2018-07-06T15:52:50.809Z,2.00
2018-07-06T15:54:53.980Z,2.40
2018-07-06T15:56:57.144Z,1.97
2018-07-06T15:59:00.324Z,1.93
2018-07-06T16:01:03.473Z,1.90
2018-07-06T16:03:06.658Z,2.33
2018-07-06T16:05:09.901Z,2.10
2018-07-06T16:07:13.024Z,1.30
2018-07-06T16:09:16.195Z,2.07
2018-07-06T16:11:19.437Z,2.00
2018-07-06T16:13:22.592Z,1.73
2018-07-06T16:15:25.739Z,2.00
2018-07-06T16:17:28.946Z,1.40
2018-07-06T16:19:32.125Z,2.30
2018-07-06T16:21:35.223Z,1.90
2018-07-06T16:23:38.382Z,1.50
2018-07-06T16:25:41.521Z,1.87
2018-07-06T16:27:44.700Z,1.90
2018-07-06T16:29:47.809Z,1.77
2018-07-06T16:31:51.083Z,1.93
2018-07-06T16:33:54.160Z,1.77
2018-07-06T16:35:57.460Z,1.77
2018-07-06T16:38:00.840Z,1.90
2018-07-06T16:40:03.984Z,2.13
2018-07-06T16:42:07.244Z,2.00
2018-07-06T16:44:10.408Z,2.23
2018-07-06T16:46:13.569Z,1.43
2018-07-06T16:48:16.724Z,1.60
2018-07-06T16:50:19.865Z,1.83
2018-07-06T16:52:23.025Z,1.53
2018-07-06T16:54:26.186Z,1.80
2018-07-06T16:56:29.356Z,1.93
2018-07-06T16:58:32.520Z,1.70
2018-07-06T17:00:35.432Z,2.00
2018-07-06T17:02:38.712Z,1.30
2018-07-06T17:04:41.860Z,1.93
2018-07-06T17:06:45.117Z,1.83
2018-07-06T17:08:48.205Z,2.20
2018-07-06T17:10:51.361Z,2.20
2018-07-06T17:12:54.496Z,3.03
2018-07-06T17:14:57.720Z,2.07
2018-07-06T17:17:00.868Z,3.43
2018-07-06T17:19:04.160Z,1.73
2018-07-06T17:21:07.361Z,2.00
2018-07-06T17:23:10.536Z,1.80
2018-07-06T17:25:13.693Z,1.97
2018-07-06T17:27:16.860Z,1.70
2018-07-06T17:29:20.024Z,1.57
2018-07-06T17:31:22.984Z,2.30
2018-07-06T17:33:26.108Z,1.50
2018-07-06T17:35:29.001Z,1.83
2018-07-06T17:37:32.136Z,1.70
2018-07-06T17:39:35.292Z,2.20
2018-07-06T17:41:38.462Z,2.17
2018-07-06T17:43:41.740Z,1.73
2018-07-06T17:45:44.925Z,1.60
2018-07-06T17:47:49.002Z,1.93
2018-07-06T17:49:52.140Z,2.50
2018-07-06T17:51:55.518Z,2.03
2018-07-06T17:53:58.627Z,1.50
2018-07-06T17:56:01.733Z,2.00
2018-07-06T17:58:05.055Z,1.57
2018-07-06T18:00:08.184Z,1.77
2018-07-06T18:02:11.311Z,2.23
2018-07-06T18:04:14.445Z,1.90
2018-07-06T18:06:17.549Z,1.90
2018-07-06T18:08:20.665Z,1.73
2018-07-06T18:10:23.780Z,2.23
2018-07-06T18:12:26.900Z,1.93
2018-07-06T18:14:30.012Z,1.50
2018-07-06T18:16:33.116Z,1.40
2018-07-06T18:18:36.256Z,1.60
2018-07-06T18:20:39.468Z,1.60
2018-07-06T18:22:42.729Z,1.87
2018-07-06T18:24:45.869Z,2.67
2018-07-06T18:26:48.744Z,1.70
2018-07-06T18:28:51.888Z,1.40
2018-07-06T18:30:55.089Z,1.50
2018-07-06T18:32:58.400Z,1.33
2018-07-06T18:35:01.527Z,1.27
2018-07-06T18:37:04.841Z,1.57
2018-07-06T18:39:08.005Z,1.40
2018-07-06T18:41:11.140Z,1.70
2018-07-06T18:43:14.228Z,1.33
2018-07-06T18:45:17.336Z,1.77
2018-07-06T18:47:20.496Z,1.30
2018-07-06T18:49:23.609Z,1.20
2018-07-06T18:51:26.568Z,1.20
2018-07-06T18:53:29.720Z,1.20
2018-07-06T18:55:33.145Z,1.63
2018-07-06T18:57:36.331Z,1.20
2018-07-06T18:59:39.519Z,1.30
2018-07-06T19:01:42.653Z,1.83
2018-07-06T19:03:45.816Z,1.60
2018-07-06T19:05:49.027Z,1.80
2018-07-06T19:07:52.367Z,1.87
2018-07-06T19:09:55.504Z,1.80
2018-07-06T19:11:58.640Z,2.17
2018-07-06T19:14:01.760Z,1.50
2018-07-06T19:16:04.692Z,1.37
2018-07-06T19:18:08.458Z,1.37
2018-07-06T19:20:11.612Z,1.10
2018-07-06T19:22:14.774Z,1.40
2018-07-06T19:24:17.966Z,1.30
2018-07-06T19:26:21.108Z,1.40
2018-07-06T19:28:24.432Z,1.90
2018-07-06T19:30:27.585Z,1.63
2018-07-06T19:32:30.720Z,1.40
2018-07-06T19:34:33.875Z,1.57
2018-07-06T19:36:38.089Z,1.70
2018-07-06T19:38:41.210Z,1.50
2018-07-06T19:40:44.369Z,1.40
2018-07-06T19:42:47.504Z,1.50
2018-07-06T19:44:50.708Z,1.20
2018-07-06T19:46:53.860Z,1.20
2018-07-06T19:48:57.009Z,1.63
2018-07-06T19:51:00.140Z,1.30
2018-07-06T19:53:03.343Z,1.50
2018-07-06T19:55:06.504Z,1.40
2018-07-06T19:57:09.624Z,2.00
2018-07-06T19:59:12.784Z,1.80
2018-07-06T20:01:15.960Z,1.67
2018-07-06T20:03:19.112Z,1.50
2018-07-06T20:05:22.354Z,1.70
2018-07-06T20:07:25.433Z,1.53
2018-07-06T20:09:28.580Z,1.83
2018-07-06T20:11:31.728Z,2.23
2018-07-06T20:13:34.895Z,1.30
2018-07-06T20:15:38.030Z,1.30
2018-07-06T20:17:41.186Z,1.50
2018-07-06T20:19:44.403Z,1.30
2018-07-06T20:21:47.535Z,1.57
2018-07-06T20:23:50.700Z,1.63
2018-07-06T20:25:53.900Z,1.47
2018-07-06T20:27:57.039Z,1.60
2018-07-06T20:30:00.214Z,1.57
2018-07-06T20:32:03.341Z,1.63
2018-07-06T20:34:06.481Z,1.37
2018-07-06T20:36:09.632Z,1.33
2018-07-06T20:38:12.811Z,1.30
2018-07-06T20:40:15.972Z,1.30
2018-07-06T20:42:19.096Z,1.17
2018-07-06T20:44:22.248Z,1.20
2018-07-06T20:46:25.405Z,1.33
2018-07-06T20:48:28.541Z,1.37
2018-07-06T20:50:31.692Z,1.53
2018-07-06T20:52:34.800Z,1.40
2018-07-06T20:54:37.883Z,1.33
2018-07-06T20:56:41.992Z,1.87
2018-07-06T20:58:45.085Z,1.30
2018-07-06T21:00:48.400Z,1.30
2018-07-06T21:02:52.605Z,1.60
2018-07-06T21:04:56.011Z,1.00
2018-07-06T21:06:59.088Z,1.10
2018-07-06T21:09:02.194Z,1.40
2018-07-06T21:11:05.391Z,1.50
2018-07-06T21:13:08.604Z,1.00
2018-07-06T21:15:11.732Z,1.30
2018-07-06T21:17:14.870Z,1.30
2018-07-06T21:19:18.028Z,0.90
2018-07-06T21:21:21.164Z,0.90
2018-07-06T21:23:24.376Z,1.10
2018-07-06T21:25:28.068Z,1.00
2018-07-06T21:27:32.036Z,1.20
2018-07-06T21:29:35.138Z,1.00
2018-07-06T21:31:38.248Z,0.97
2018-07-06T21:33:41.411Z,1.30
2018-07-06T21:35:44.521Z,1.30
2018-07-06T21:37:47.730Z,1.03
2018-07-06T21:39:50.839Z,1.23
2018-07-06T21:41:53.972Z,1.00
2018-07-06T21:43:57.074Z,1.33
2018-07-06T21:46:00.168Z,1.30
2018-07-06T21:48:03.320Z,1.10
2018-07-06T21:50:07.812Z,0.80
2018-07-06T21:52:10.936Z,0.80
2018-07-06T21:54:14.064Z,1.00
2018-07-06T21:56:17.204Z,1.27
2018-07-06T21:58:20.339Z,1.00
2018-07-06T22:00:32.979Z,1.13
2018-07-06T22:02:36.172Z,1.20
2018-07-06T22:04:39.264Z,3.00
2018-07-06T22:06:42.392Z,0.90
2018-07-06T22:08:45.634Z,0.80
2018-07-06T22:10:48.959Z,0.90
2018-07-06T22:12:52.094Z,0.90
2018-07-06T22:14:55.242Z,0.90
2018-07-06T22:16:58.400Z,0.90
2018-07-06T22:19:01.463Z,1.00
2018-07-06T22:21:04.568Z,0.90
2018-07-06T22:23:07.680Z,0.93
2018-07-06T22:25:10.786Z,0.80
2018-07-06T22:27:13.923Z,1.10
2018-07-06T22:29:17.037Z,1.10
2018-07-06T22:31:20.194Z,1.00
2018-07-06T22:33:23.316Z,0.80
2018-07-06T22:35:26.645Z,0.97
2018-07-06T22:37:29.739Z,1.10
2018-07-06T22:39:32.947Z,1.00
2018-07-06T22:41:36.100Z,0.97
2018-07-06T22:43:39.220Z,1.10
2018-07-06T22:45:42.098Z,1.10
2018-07-06T22:47:45.188Z,0.90
2018-07-06T22:49:48.308Z,1.00
2018-07-06T22:51:51.446Z,1.10
2018-07-06T22:53:54.524Z,0.70
2018-07-06T22:55:57.636Z,1.10
2018-07-06T22:58:00.755Z,1.00
2018-07-06T23:00:03.922Z,0.90
2018-07-06T23:02:07.380Z,0.90
2018-07-06T23:04:10.499Z,0.80
2018-07-06T23:06:13.646Z,0.90
2018-07-06T23:08:16.771Z,0.90
2018-07-06T23:10:19.886Z,0.80
2018-07-06T23:12:22.992Z,0.70
2018-07-06T23:14:26.096Z,1.13
2018-07-06T23:16:29.201Z,1.00
2018-07-06T23:18:32.529Z,1.10
2018-07-06T23:20:35.613Z,1.50
2018-07-06T23:23:03.017Z,0.80
2018-07-06T23:25:06.166Z,1.23
2018-07-06T23:27:09.357Z,0.90
2018-07-06T23:29:12.411Z,1.33
2018-07-06T23:31:15.500Z,0.90
2018-07-06T23:33:18.628Z,1.10
2018-07-06T23:35:22.012Z,1.07
2018-07-06T23:37:25.112Z,1.00
2018-07-06T23:39:28.233Z,0.90
2018-07-06T23:41:31.440Z,1.33
2018-07-06T23:43:34.541Z,1.20
2018-07-06T23:45:37.639Z,1.10
2018-07-06T23:47:40.747Z,1.23
2018-07-06T23:49:43.860Z,1.03
2018-07-06T23:51:46.954Z,1.43
2018-07-06T23:53:50.068Z,1.50
2018-07-06T23:55:53.187Z,0.80
2018-07-06T23:57:56.288Z,0.93
2018-07-06T23:59:59.396Z,1.33
